sensor_id;sensor_type;location;lat;lon;timestamp;P1;durP1;ratioP1;P2;durP2;ratioP2
37425;SDS011;23285;50.180;7.036;2022-10-22T00:01:54;17.27;;;8.30;;
37425;SDS011;23285;50.180;7.036;2022-10-22T00:04:40;19.47;;;10.03;;
37425;SDS011;23285;50.180;7.036;2022-10-22T00:07:25;16.77;;;8.77;;
37425;SDS011;23285;50.180;7.036;2022-10-22T00:10:10;14.07;;;9.80;;
37425;SDS011;23285;50.180;7.036;2022-10-22T00:12:56;12.27;;;7.20;;
37425;SDS011;23285;50.180;7.036;2022-10-22T00:15:41;9.97;;;7.27;;
37425;SDS011;23285;50.180;7.036;2022-10-22T00:18:26;11.93;;;7.30;;
37425;SDS011;23285;50.180;7.036;2022-10-22T00:21:12;8.37;;;7.20;;
37425;SDS011;23285;50.180;7.036;2022-10-22T00:23:57;17.80;;;10.50;;
37425;SDS011;23285;50.180;7.036;2022-10-22T00:26:42;11.50;;;9.10;;
37425;SDS011;23285;50.180;7.036;2022-10-22T00:29:27;12.77;;;9.20;;
37425;SDS011;23285;50.180;7.036;2022-10-22T00:32:12;12.17;;;10.77;;
37425;SDS011;23285;50.180;7.036;2022-10-22T00:34:58;15.27;;;11.27;;
37425;SDS011;23285;50.180;7.036;2022-10-22T00:37:43;15.53;;;10.80;;
37425;SDS011;23285;50.180;7.036;2022-10-22T00:40:28;19.00;;;12.60;;
37425;SDS011;23285;50.180;7.036;2022-10-22T00:43:15;20.77;;;14.23;;
37425;SDS011;23285;50.180;7.036;2022-10-22T00:45:53;18.37;;;14.10;;
37425;SDS011;23285;50.180;7.036;2022-10-22T00:48:38;20.63;;;14.43;;
37425;SDS011;23285;50.180;7.036;2022-10-22T00:51:25;22.07;;;15.33;;
37425;SDS011;23285;50.180;7.036;2022-10-22T00:54:14;25.53;;;16.40;;
37425;SDS011;23285;50.180;7.036;2022-10-22T00:57:00;22.97;;;15.17;;
37425;SDS011;23285;50.180;7.036;2022-10-22T00:59:46;16.03;;;12.83;;
37425;SDS011;23285;50.180;7.036;2022-10-22T01:02:32;19.30;;;14.37;;
37425;SDS011;23285;50.180;7.036;2022-10-22T01:05:17;27.20;;;17.10;;
37425;SDS011;23285;50.180;7.036;2022-10-22T01:08:02;22.07;;;15.13;;
37425;SDS011;23285;50.180;7.036;2022-10-22T01:22:21;19.43;;;14.67;;
37425;SDS011;23285;50.180;7.036;2022-10-22T01:31:25;17.20;;;11.00;;
37425;SDS011;23285;50.180;7.036;2022-10-22T01:34:15;20.53;;;15.30;;
37425;SDS011;23285;50.180;7.036;2022-10-22T01:37:01;17.77;;;14.13;;
37425;SDS011;23285;50.180;7.036;2022-10-22T01:39:47;18.37;;;14.67;;
37425;SDS011;23285;50.180;7.036;2022-10-22T01:42:33;23.37;;;15.00;;
37425;SDS011;23285;50.180;7.036;2022-10-22T01:45:19;21.27;;;16.47;;
37425;SDS011;23285;50.180;7.036;2022-10-22T01:48:07;18.13;;;12.93;;
37425;SDS011;23285;50.180;7.036;2022-10-22T01:54:26;18.00;;;12.93;;
37425;SDS011;23285;50.180;7.036;2022-10-22T01:57:23;17.27;;;13.40;;
37425;SDS011;23285;50.180;7.036;2022-10-22T02:00:13;27.70;;;18.70;;
37425;SDS011;23285;50.180;7.036;2022-10-22T02:03:12;17.50;;;13.73;;
37425;SDS011;23285;50.180;7.036;2022-10-22T02:06:03;17.13;;;12.50;;
37425;SDS011;23285;50.180;7.036;2022-10-22T02:08:49;20.07;;;13.70;;
37425;SDS011;23285;50.180;7.036;2022-10-22T02:11:36;15.53;;;11.93;;
37425;SDS011;23285;50.180;7.036;2022-10-22T02:14:22;19.63;;;14.20;;
37425;SDS011;23285;50.180;7.036;2022-10-22T02:17:09;14.83;;;11.27;;
37425;SDS011;23285;50.180;7.036;2022-10-22T02:20:00;18.07;;;13.13;;
37425;SDS011;23285;50.180;7.036;2022-10-22T02:22:47;12.43;;;10.67;;
37425;SDS011;23285;50.180;7.036;2022-10-22T02:25:33;19.33;;;12.07;;
37425;SDS011;23285;50.180;7.036;2022-10-22T02:28:28;17.67;;;10.37;;
37425;SDS011;23285;50.180;7.036;2022-10-22T02:31:22;13.93;;;9.87;;
37425;SDS011;23285;50.180;7.036;2022-10-22T02:34:13;15.20;;;8.67;;
37425;SDS011;23285;50.180;7.036;2022-10-22T02:37:01;12.07;;;8.20;;
37425;SDS011;23285;50.180;7.036;2022-10-22T02:39:47;13.73;;;8.67;;
37425;SDS011;23285;50.180;7.036;2022-10-22T02:42:33;14.00;;;8.33;;
37425;SDS011;23285;50.180;7.036;2022-10-22T02:45:20;22.73;;;9.13;;
37425;SDS011;23285;50.180;7.036;2022-10-22T02:48:05;14.27;;;8.87;;
37425;SDS011;23285;50.180;7.036;2022-10-22T02:50:50;17.90;;;10.17;;
37425;SDS011;23285;50.180;7.036;2022-10-22T02:53:35;13.53;;;9.03;;
37425;SDS011;23285;50.180;7.036;2022-10-22T02:56:20;11.73;;;8.60;;
37425;SDS011;23285;50.180;7.036;2022-10-22T02:59:05;20.10;;;10.30;;
37425;SDS011;23285;50.180;7.036;2022-10-22T03:01:50;12.20;;;8.97;;
37425;SDS011;23285;50.180;7.036;2022-10-22T03:04:35;12.27;;;7.80;;
37425;SDS011;23285;50.180;7.036;2022-10-22T03:07:21;14.33;;;7.40;;
37425;SDS011;23285;50.180;7.036;2022-10-22T03:10:06;13.87;;;9.17;;
37425;SDS011;23285;50.180;7.036;2022-10-22T03:12:51;12.47;;;7.30;;
37425;SDS011;23285;50.180;7.036;2022-10-22T03:15:37;14.93;;;10.03;;
37425;SDS011;23285;50.180;7.036;2022-10-22T03:18:22;15.37;;;7.67;;
37425;SDS011;23285;50.180;7.036;2022-10-22T03:21:09;14.37;;;7.57;;
37425;SDS011;23285;50.180;7.036;2022-10-22T03:23:55;14.63;;;8.07;;
37425;SDS011;23285;50.180;7.036;2022-10-22T03:26:41;14.77;;;7.27;;
37425;SDS011;23285;50.180;7.036;2022-10-22T03:29:29;16.00;;;7.60;;
37425;SDS011;23285;50.180;7.036;2022-10-22T03:32:16;10.83;;;7.47;;
37425;SDS011;23285;50.180;7.036;2022-10-22T03:35:01;8.97;;;5.90;;
37425;SDS011;23285;50.180;7.036;2022-10-22T03:37:47;12.27;;;6.20;;
37425;SDS011;23285;50.180;7.036;2022-10-22T03:40:33;14.47;;;6.40;;
37425;SDS011;23285;50.180;7.036;2022-10-22T03:43:18;12.63;;;6.07;;
37425;SDS011;23285;50.180;7.036;2022-10-22T03:46:03;11.23;;;6.87;;
37425;SDS011;23285;50.180;7.036;2022-10-22T03:48:48;11.73;;;6.63;;
37425;SDS011;23285;50.180;7.036;2022-10-22T03:51:33;12.40;;;6.10;;
37425;SDS011;23285;50.180;7.036;2022-10-22T03:54:19;11.50;;;6.43;;
37425;SDS011;23285;50.180;7.036;2022-10-22T03:57:05;16.80;;;6.70;;
37425;SDS011;23285;50.180;7.036;2022-10-22T03:59:50;9.53;;;5.63;;
37425;SDS011;23285;50.180;7.036;2022-10-22T04:02:35;12.37;;;6.37;;
37425;SDS011;23285;50.180;7.036;2022-10-22T04:05:21;10.77;;;5.80;;
37425;SDS011;23285;50.180;7.036;2022-10-22T04:08:06;14.13;;;7.10;;
37425;SDS011;23285;50.180;7.036;2022-10-22T04:10:51;17.90;;;8.73;;
37425;SDS011;23285;50.180;7.036;2022-10-22T04:13:36;13.73;;;6.53;;
37425;SDS011;23285;50.180;7.036;2022-10-22T04:16:21;13.17;;;7.80;;
37425;SDS011;23285;50.180;7.036;2022-10-22T04:19:07;14.67;;;7.33;;
37425;SDS011;23285;50.180;7.036;2022-10-22T04:21:52;11.93;;;7.07;;
37425;SDS011;23285;50.180;7.036;2022-10-22T04:24:37;14.83;;;5.97;;
37425;SDS011;23285;50.180;7.036;2022-10-22T04:27:23;10.07;;;6.70;;
37425;SDS011;23285;50.180;7.036;2022-10-22T04:30:08;12.07;;;6.30;;
37425;SDS011;23285;50.180;7.036;2022-10-22T04:32:54;10.73;;;6.77;;
37425;SDS011;23285;50.180;7.036;2022-10-22T04:35:39;11.27;;;6.57;;
37425;SDS011;23285;50.180;7.036;2022-10-22T04:38:24;12.57;;;6.30;;
37425;SDS011;23285;50.180;7.036;2022-10-22T04:41:16;21.07;;;6.50;;
37425;SDS011;23285;50.180;7.036;2022-10-22T04:44:03;8.13;;;4.90;;
37425;SDS011;23285;50.180;7.036;2022-10-22T04:46:49;12.67;;;4.97;;
37425;SDS011;23285;50.180;7.036;2022-10-22T04:49:34;10.63;;;4.63;;
37425;SDS011;23285;50.180;7.036;2022-10-22T04:52:19;11.43;;;6.03;;
37425;SDS011;23285;50.180;7.036;2022-10-22T04:55:04;10.27;;;5.30;;
37425;SDS011;23285;50.180;7.036;2022-10-22T04:57:50;9.57;;;4.47;;
37425;SDS011;23285;50.180;7.036;2022-10-22T05:00:35;11.37;;;4.93;;
37425;SDS011;23285;50.180;7.036;2022-10-22T05:03:20;8.57;;;5.00;;
37425;SDS011;23285;50.180;7.036;2022-10-22T05:06:08;10.43;;;5.40;;
37425;SDS011;23285;50.180;7.036;2022-10-22T05:08:55;12.77;;;4.53;;
37425;SDS011;23285;50.180;7.036;2022-10-22T05:11:41;9.10;;;5.00;;
37425;SDS011;23285;50.180;7.036;2022-10-22T05:14:28;9.00;;;3.73;;
37425;SDS011;23285;50.180;7.036;2022-10-22T05:17:13;10.23;;;4.77;;
37425;SDS011;23285;50.180;7.036;2022-10-22T05:19:58;8.97;;;4.07;;
37425;SDS011;23285;50.180;7.036;2022-10-22T05:22:44;11.27;;;4.80;;
37425;SDS011;23285;50.180;7.036;2022-10-22T05:25:29;6.73;;;4.27;;
37425;SDS011;23285;50.180;7.036;2022-10-22T05:28:14;11.43;;;4.80;;
37425;SDS011;23285;50.180;7.036;2022-10-22T05:30:59;14.63;;;5.77;;
37425;SDS011;23285;50.180;7.036;2022-10-22T05:33:45;12.87;;;5.97;;
37425;SDS011;23285;50.180;7.036;2022-10-22T05:36:30;7.30;;;5.10;;
37425;SDS011;23285;50.180;7.036;2022-10-22T05:39:15;11.10;;;4.83;;
37425;SDS011;23285;50.180;7.036;2022-10-22T05:42:00;11.00;;;5.77;;
37425;SDS011;23285;50.180;7.036;2022-10-22T05:44:46;9.10;;;5.03;;
37425;SDS011;23285;50.180;7.036;2022-10-22T05:47:31;14.10;;;5.53;;
37425;SDS011;23285;50.180;7.036;2022-10-22T05:50:17;7.27;;;4.50;;
37425;SDS011;23285;50.180;7.036;2022-10-22T05:53:02;9.47;;;4.70;;
37425;SDS011;23285;50.180;7.036;2022-10-22T05:55:48;7.47;;;4.87;;
37425;SDS011;23285;50.180;7.036;2022-10-22T05:58:33;11.83;;;5.33;;
37425;SDS011;23285;50.180;7.036;2022-10-22T06:01:20;7.43;;;4.37;;
37425;SDS011;23285;50.180;7.036;2022-10-22T06:04:11;11.37;;;4.90;;
37425;SDS011;23285;50.180;7.036;2022-10-22T06:06:57;8.43;;;4.50;;
37425;SDS011;23285;50.180;7.036;2022-10-22T06:09:42;7.87;;;4.33;;
37425;SDS011;23285;50.180;7.036;2022-10-22T06:12:27;4.83;;;4.00;;
37425;SDS011;23285;50.180;7.036;2022-10-22T06:15:13;6.37;;;4.30;;
37425;SDS011;23285;50.180;7.036;2022-10-22T06:18:00;13.40;;;3.90;;
37425;SDS011;23285;50.180;7.036;2022-10-22T06:20:45;6.90;;;3.80;;
37425;SDS011;23285;50.180;7.036;2022-10-22T06:23:30;9.23;;;4.03;;
37425;SDS011;23285;50.180;7.036;2022-10-22T06:26:15;7.67;;;3.43;;
37425;SDS011;23285;50.180;7.036;2022-10-22T06:29:01;14.67;;;3.83;;
37425;SDS011;23285;50.180;7.036;2022-10-22T06:31:46;10.80;;;3.87;;
37425;SDS011;23285;50.180;7.036;2022-10-22T06:34:31;6.37;;;3.33;;
37425;SDS011;23285;50.180;7.036;2022-10-22T06:37:17;10.40;;;3.57;;
37425;SDS011;23285;50.180;7.036;2022-10-22T06:40:02;6.50;;;3.30;;
37425;SDS011;23285;50.180;7.036;2022-10-22T06:42:47;11.03;;;3.83;;
37425;SDS011;23285;50.180;7.036;2022-10-22T06:45:32;4.90;;;3.03;;
37425;SDS011;23285;50.180;7.036;2022-10-22T06:48:17;6.50;;;3.70;;
37425;SDS011;23285;50.180;7.036;2022-10-22T06:51:03;14.23;;;4.40;;
37425;SDS011;23285;50.180;7.036;2022-10-22T06:53:50;6.30;;;3.30;;
37425;SDS011;23285;50.180;7.036;2022-10-22T06:56:35;5.40;;;2.83;;
37425;SDS011;23285;50.180;7.036;2022-10-22T06:59:20;5.77;;;3.33;;
37425;SDS011;23285;50.180;7.036;2022-10-22T07:02:05;9.70;;;3.10;;
37425;SDS011;23285;50.180;7.036;2022-10-22T07:04:52;8.20;;;3.50;;
37425;SDS011;23285;50.180;7.036;2022-10-22T07:07:37;5.10;;;2.97;;
37425;SDS011;23285;50.180;7.036;2022-10-22T07:10:22;2.87;;;2.27;;
37425;SDS011;23285;50.180;7.036;2022-10-22T07:13:07;11.00;;;2.87;;
37425;SDS011;23285;50.180;7.036;2022-10-22T07:15:53;6.27;;;2.63;;
37425;SDS011;23285;50.180;7.036;2022-10-22T07:18:39;6.87;;;2.83;;
37425;SDS011;23285;50.180;7.036;2022-10-22T07:21:24;7.00;;;2.70;;
37425;SDS011;23285;50.180;7.036;2022-10-22T07:24:09;8.53;;;2.87;;
37425;SDS011;23285;50.180;7.036;2022-10-22T07:26:54;5.57;;;2.60;;
37425;SDS011;23285;50.180;7.036;2022-10-22T07:29:40;6.03;;;2.97;;
37425;SDS011;23285;50.180;7.036;2022-10-22T07:32:25;8.00;;;3.57;;
37425;SDS011;23285;50.180;7.036;2022-10-22T07:35:10;6.40;;;2.40;;
37425;SDS011;23285;50.180;7.036;2022-10-22T07:37:56;10.70;;;2.60;;
37425;SDS011;23285;50.180;7.036;2022-10-22T07:40:40;6.87;;;3.87;;
37425;SDS011;23285;50.180;7.036;2022-10-22T07:43:26;7.63;;;2.73;;
37425;SDS011;23285;50.180;7.036;2022-10-22T07:46:11;6.37;;;2.60;;
37425;SDS011;23285;50.180;7.036;2022-10-22T07:48:56;9.83;;;3.03;;
37425;SDS011;23285;50.180;7.036;2022-10-22T07:51:41;8.37;;;2.90;;
37425;SDS011;23285;50.180;7.036;2022-10-22T07:54:26;9.07;;;3.30;;
37425;SDS011;23285;50.180;7.036;2022-10-22T07:57:11;6.13;;;2.57;;
37425;SDS011;23285;50.180;7.036;2022-10-22T07:59:56;11.93;;;3.20;;
37425;SDS011;23285;50.180;7.036;2022-10-22T08:02:42;12.67;;;2.97;;
37425;SDS011;23285;50.180;7.036;2022-10-22T08:05:27;7.90;;;2.53;;
37425;SDS011;23285;50.180;7.036;2022-10-22T08:08:12;4.30;;;2.23;;
37425;SDS011;23285;50.180;7.036;2022-10-22T08:10:59;9.50;;;2.90;;
37425;SDS011;23285;50.180;7.036;2022-10-22T08:13:45;11.17;;;2.70;;
37425;SDS011;23285;50.180;7.036;2022-10-22T08:16:30;6.63;;;2.30;;
37425;SDS011;23285;50.180;7.036;2022-10-22T08:19:15;8.10;;;2.33;;
37425;SDS011;23285;50.180;7.036;2022-10-22T08:22:02;7.37;;;2.63;;
37425;SDS011;23285;50.180;7.036;2022-10-22T08:24:47;5.57;;;2.10;;
37425;SDS011;23285;50.180;7.036;2022-10-22T08:27:33;10.60;;;2.47;;
37425;SDS011;23285;50.180;7.036;2022-10-22T08:30:18;6.40;;;2.53;;
37425;SDS011;23285;50.180;7.036;2022-10-22T08:33:04;5.20;;;2.37;;
37425;SDS011;23285;50.180;7.036;2022-10-22T08:35:49;6.10;;;2.27;;
37425;SDS011;23285;50.180;7.036;2022-10-22T08:38:36;6.53;;;2.33;;
37425;SDS011;23285;50.180;7.036;2022-10-22T08:41:21;6.23;;;2.40;;
37425;SDS011;23285;50.180;7.036;2022-10-22T08:49:47;5.47;;;1.97;;
37425;SDS011;23285;50.180;7.036;2022-10-22T08:52:32;7.63;;;1.80;;
37425;SDS011;23285;50.180;7.036;2022-10-22T08:55:18;7.57;;;2.30;;
37425;SDS011;23285;50.180;7.036;2022-10-22T09:01:13;7.00;;;2.23;;
37425;SDS011;23285;50.180;7.036;2022-10-22T09:04:42;7.13;;;2.30;;
37425;SDS011;23285;50.180;7.036;2022-10-22T09:07:33;6.93;;;2.23;;
37425;SDS011;23285;50.180;7.036;2022-10-22T09:10:20;6.13;;;2.50;;
37425;SDS011;23285;50.180;7.036;2022-10-22T09:13:10;10.53;;;2.23;;
37425;SDS011;23285;50.180;7.036;2022-10-22T09:16:00;4.50;;;1.90;;
37425;SDS011;23285;50.180;7.036;2022-10-22T09:22:10;5.67;;;1.93;;
37425;SDS011;23285;50.180;7.036;2022-10-22T09:24:58;4.17;;;1.90;;
37425;SDS011;23285;50.180;7.036;2022-10-22T09:27:43;7.80;;;1.70;;
37425;SDS011;23285;50.180;7.036;2022-10-22T09:30:30;7.57;;;2.07;;
37425;SDS011;23285;50.180;7.036;2022-10-22T09:33:22;5.30;;;1.73;;
37425;SDS011;23285;50.180;7.036;2022-10-22T09:36:15;7.40;;;2.17;;
37425;SDS011;23285;50.180;7.036;2022-10-22T09:39:00;7.47;;;1.63;;
37425;SDS011;23285;50.180;7.036;2022-10-22T09:41:45;5.63;;;1.80;;
37425;SDS011;23285;50.180;7.036;2022-10-22T09:44:34;5.53;;;1.70;;
37425;SDS011;23285;50.180;7.036;2022-10-22T09:50:19;7.03;;;1.70;;
37425;SDS011;23285;50.180;7.036;2022-10-22T09:55:59;6.37;;;2.10;;
37425;SDS011;23285;50.180;7.036;2022-10-22T09:58:45;10.13;;;2.03;;
37425;SDS011;23285;50.180;7.036;2022-10-22T10:01:35;9.90;;;1.57;;
37425;SDS011;23285;50.180;7.036;2022-10-22T10:04:24;5.63;;;1.77;;
37425;SDS011;23285;50.180;7.036;2022-10-22T10:07:14;7.33;;;2.30;;
37425;SDS011;23285;50.180;7.036;2022-10-22T10:10:01;6.33;;;2.00;;
37425;SDS011;23285;50.180;7.036;2022-10-22T10:25:03;8.27;;;2.43;;
37425;SDS011;23285;50.180;7.036;2022-10-22T10:37:28;7.77;;;1.90;;
37425;SDS011;23285;50.180;7.036;2022-10-22T10:40:24;8.73;;;1.67;;
37425;SDS011;23285;50.180;7.036;2022-10-22T10:51:58;5.23;;;1.90;;
37425;SDS011;23285;50.180;7.036;2022-10-22T11:00:52;6.37;;;1.70;;
37425;SDS011;23285;50.180;7.036;2022-10-22T11:07:04;6.13;;;1.40;;
37425;SDS011;23285;50.180;7.036;2022-10-22T11:09:58;6.93;;;1.60;;
37425;SDS011;23285;50.180;7.036;2022-10-22T11:12:47;3.77;;;1.67;;
37425;SDS011;23285;50.180;7.036;2022-10-22T11:15:36;6.43;;;1.43;;
37425;SDS011;23285;50.180;7.036;2022-10-22T11:18:31;5.03;;;1.60;;
37425;SDS011;23285;50.180;7.036;2022-10-22T11:27:06;4.47;;;1.33;;
37425;SDS011;23285;50.180;7.036;2022-10-22T11:30:23;6.60;;;1.60;;
37425;SDS011;23285;50.180;7.036;2022-10-22T11:33:09;7.00;;;2.30;;
37425;SDS011;23285;50.180;7.036;2022-10-22T11:35:57;4.53;;;1.57;;
37425;SDS011;23285;50.180;7.036;2022-10-22T11:38:45;7.13;;;1.53;;
37425;SDS011;23285;50.180;7.036;2022-10-22T11:41:31;7.60;;;1.83;;
37425;SDS011;23285;50.180;7.036;2022-10-22T11:44:20;5.70;;;2.03;;
37425;SDS011;23285;50.180;7.036;2022-10-22T11:47:14;7.53;;;1.77;;
37425;SDS011;23285;50.180;7.036;2022-10-22T11:50:16;6.73;;;1.80;;
37425;SDS011;23285;50.180;7.036;2022-10-22T11:53:02;8.87;;;1.70;;
37425;SDS011;23285;50.180;7.036;2022-10-22T11:55:51;5.57;;;1.60;;
37425;SDS011;23285;50.180;7.036;2022-10-22T11:58:39;9.37;;;2.33;;
37425;SDS011;23285;50.180;7.036;2022-10-22T12:01:27;3.83;;;1.37;;
37425;SDS011;23285;50.180;7.036;2022-10-22T12:04:32;6.07;;;1.60;;
37425;SDS011;23285;50.180;7.036;2022-10-22T12:07:34;7.40;;;1.83;;
37425;SDS011;23285;50.180;7.036;2022-10-22T12:10:59;5.17;;;1.87;;
37425;SDS011;23285;50.180;7.036;2022-10-22T12:17:11;4.57;;;1.70;;
37425;SDS011;23285;50.180;7.036;2022-10-22T12:20:12;6.53;;;1.47;;
37425;SDS011;23285;50.180;7.036;2022-10-22T12:22:57;6.37;;;2.07;;
37425;SDS011;23285;50.180;7.036;2022-10-22T12:25:43;5.60;;;1.33;;
37425;SDS011;23285;50.180;7.036;2022-10-22T12:28:29;4.63;;;1.60;;
37425;SDS011;23285;50.180;7.036;2022-10-22T12:31:22;5.03;;;1.50;;
37425;SDS011;23285;50.180;7.036;2022-10-22T12:34:10;5.20;;;1.80;;
37425;SDS011;23285;50.180;7.036;2022-10-22T12:37:03;5.83;;;1.80;;
37425;SDS011;23285;50.180;7.036;2022-10-22T12:39:48;5.23;;;1.67;;
37425;SDS011;23285;50.180;7.036;2022-10-22T12:42:34;7.67;;;1.97;;
37425;SDS011;23285;50.180;7.036;2022-10-22T12:45:21;7.07;;;1.97;;
37425;SDS011;23285;50.180;7.036;2022-10-22T12:48:11;7.47;;;1.57;;
37425;SDS011;23285;50.180;7.036;2022-10-22T12:51:03;7.20;;;1.77;;
37425;SDS011;23285;50.180;7.036;2022-10-22T12:53:53;5.43;;;1.63;;
37425;SDS011;23285;50.180;7.036;2022-10-22T12:56:51;9.57;;;2.20;;
37425;SDS011;23285;50.180;7.036;2022-10-22T12:59:37;7.30;;;1.83;;
37425;SDS011;23285;50.180;7.036;2022-10-22T13:02:23;4.63;;;1.53;;
37425;SDS011;23285;50.180;7.036;2022-10-22T13:10:52;7.60;;;2.10;;
37425;SDS011;23285;50.180;7.036;2022-10-22T13:16:23;5.30;;;1.77;;
37425;SDS011;23285;50.180;7.036;2022-10-22T13:19:34;5.27;;;1.80;;
37425;SDS011;23285;50.180;7.036;2022-10-22T13:22:26;9.27;;;2.30;;
37425;SDS011;23285;50.180;7.036;2022-10-22T13:30:57;7.07;;;1.90;;
37425;SDS011;23285;50.180;7.036;2022-10-22T13:33:53;8.40;;;1.87;;
37425;SDS011;23285;50.180;7.036;2022-10-22T13:36:40;7.00;;;2.80;;
37425;SDS011;23285;50.180;7.036;2022-10-22T13:39:24;8.77;;;2.37;;
37425;SDS011;23285;50.180;7.036;2022-10-22T13:42:10;8.80;;;2.07;;
37425;SDS011;23285;50.180;7.036;2022-10-22T13:44:56;7.00;;;2.07;;
37425;SDS011;23285;50.180;7.036;2022-10-22T13:47:41;8.57;;;2.20;;
37425;SDS011;23285;50.180;7.036;2022-10-22T13:50:31;6.97;;;1.90;;
37425;SDS011;23285;50.180;7.036;2022-10-22T13:53:18;5.20;;;1.87;;
37425;SDS011;23285;50.180;7.036;2022-10-22T13:56:05;6.60;;;1.80;;
37425;SDS011;23285;50.180;7.036;2022-10-22T13:58:54;9.00;;;2.20;;
37425;SDS011;23285;50.180;7.036;2022-10-22T14:01:39;5.17;;;1.90;;
37425;SDS011;23285;50.180;7.036;2022-10-22T14:04:24;7.53;;;1.73;;
37425;SDS011;23285;50.180;7.036;2022-10-22T14:07:13;15.63;;;2.37;;
37425;SDS011;23285;50.180;7.036;2022-10-22T14:10:00;4.20;;;1.47;;
37425;SDS011;23285;50.180;7.036;2022-10-22T14:12:45;7.53;;;1.83;;
37425;SDS011;23285;50.180;7.036;2022-10-22T14:15:31;6.90;;;2.07;;
37425;SDS011;23285;50.180;7.036;2022-10-22T14:18:20;7.47;;;2.47;;
37425;SDS011;23285;50.180;7.036;2022-10-22T14:21:10;4.17;;;1.50;;
37425;SDS011;23285;50.180;7.036;2022-10-22T14:23:56;3.70;;;1.57;;
37425;SDS011;23285;50.180;7.036;2022-10-22T14:26:41;6.97;;;2.00;;
37425;SDS011;23285;50.180;7.036;2022-10-22T14:29:26;10.90;;;2.17;;
37425;SDS011;23285;50.180;7.036;2022-10-22T14:32:13;5.47;;;2.10;;
37425;SDS011;23285;50.180;7.036;2022-10-22T14:35:04;6.93;;;1.93;;
37425;SDS011;23285;50.180;7.036;2022-10-22T14:37:49;5.63;;;1.80;;
37425;SDS011;23285;50.180;7.036;2022-10-22T14:40:35;8.50;;;2.10;;
37425;SDS011;23285;50.180;7.036;2022-10-22T14:43:23;7.30;;;2.00;;
37425;SDS011;23285;50.180;7.036;2022-10-22T14:46:11;7.87;;;2.33;;
37425;SDS011;23285;50.180;7.036;2022-10-22T14:48:57;10.00;;;2.13;;
37425;SDS011;23285;50.180;7.036;2022-10-22T14:51:42;6.83;;;1.80;;
37425;SDS011;23285;50.180;7.036;2022-10-22T14:54:27;7.87;;;1.93;;
37425;SDS011;23285;50.180;7.036;2022-10-22T14:57:12;7.20;;;1.73;;
37425;SDS011;23285;50.180;7.036;2022-10-22T14:59:58;5.13;;;1.53;;
37425;SDS011;23285;50.180;7.036;2022-10-22T15:02:43;7.50;;;2.03;;
37425;SDS011;23285;50.180;7.036;2022-10-22T15:05:28;6.80;;;2.00;;
37425;SDS011;23285;50.180;7.036;2022-10-22T15:08:13;7.23;;;2.30;;
37425;SDS011;23285;50.180;7.036;2022-10-22T15:13:44;8.10;;;1.90;;
37425;SDS011;23285;50.180;7.036;2022-10-22T15:16:29;8.43;;;1.67;;
37425;SDS011;23285;50.180;7.036;2022-10-22T15:19:14;5.57;;;1.60;;
37425;SDS011;23285;50.180;7.036;2022-10-22T15:21:59;6.03;;;1.60;;
37425;SDS011;23285;50.180;7.036;2022-10-22T15:24:44;8.07;;;2.10;;
37425;SDS011;23285;50.180;7.036;2022-10-22T15:27:29;9.27;;;1.87;;
37425;SDS011;23285;50.180;7.036;2022-10-22T15:30:15;8.07;;;1.90;;
37425;SDS011;23285;50.180;7.036;2022-10-22T15:33:00;10.37;;;2.87;;
37425;SDS011;23285;50.180;7.036;2022-10-22T15:35:45;5.33;;;1.77;;
37425;SDS011;23285;50.180;7.036;2022-10-22T15:38:30;6.43;;;2.23;;
37425;SDS011;23285;50.180;7.036;2022-10-22T15:41:15;4.00;;;1.93;;
37425;SDS011;23285;50.180;7.036;2022-10-22T15:44:01;5.10;;;2.03;;
37425;SDS011;23285;50.180;7.036;2022-10-22T15:46:46;4.27;;;1.87;;
37425;SDS011;23285;50.180;7.036;2022-10-22T15:49:32;2.80;;;2.07;;
37425;SDS011;23285;50.180;7.036;2022-10-22T15:52:19;4.33;;;3.00;;
37425;SDS011;23285;50.180;7.036;2022-10-22T15:55:06;6.43;;;3.10;;
37425;SDS011;23285;50.180;7.036;2022-10-22T15:57:53;9.23;;;4.20;;
37425;SDS011;23285;50.180;7.036;2022-10-22T16:00:39;10.37;;;4.57;;
37425;SDS011;23285;50.180;7.036;2022-10-22T16:03:24;10.47;;;4.73;;
37425;SDS011;23285;50.180;7.036;2022-10-22T16:06:09;7.80;;;4.13;;
37425;SDS011;23285;50.180;7.036;2022-10-22T16:08:58;8.07;;;3.77;;
37425;SDS011;23285;50.180;7.036;2022-10-22T16:11:44;5.97;;;3.70;;
37425;SDS011;23285;50.180;7.036;2022-10-22T16:14:29;6.73;;;2.93;;
37425;SDS011;23285;50.180;7.036;2022-10-22T16:17:14;5.20;;;2.70;;
37425;SDS011;23285;50.180;7.036;2022-10-22T16:19:59;6.77;;;2.90;;
37425;SDS011;23285;50.180;7.036;2022-10-22T16:22:47;5.20;;;2.07;;
37425;SDS011;23285;50.180;7.036;2022-10-22T16:25:37;3.13;;;2.00;;
37425;SDS011;23285;50.180;7.036;2022-10-22T16:28:22;5.57;;;2.53;;
37425;SDS011;23285;50.180;7.036;2022-10-22T16:31:08;4.03;;;1.73;;
37425;SDS011;23285;50.180;7.036;2022-10-22T16:33:54;6.53;;;1.83;;
37425;SDS011;23285;50.180;7.036;2022-10-22T16:36:39;5.67;;;2.03;;
37425;SDS011;23285;50.180;7.036;2022-10-22T16:39:25;8.07;;;2.70;;
37425;SDS011;23285;50.180;7.036;2022-10-22T16:42:10;11.07;;;4.53;;
37425;SDS011;23285;50.180;7.036;2022-10-22T16:44:55;8.97;;;5.57;;
37425;SDS011;23285;50.180;7.036;2022-10-22T16:47:40;10.70;;;6.87;;
37425;SDS011;23285;50.180;7.036;2022-10-22T16:50:26;7.90;;;3.97;;
37425;SDS011;23285;50.180;7.036;2022-10-22T16:53:11;6.97;;;2.93;;
37425;SDS011;23285;50.180;7.036;2022-10-22T16:55:56;7.17;;;2.37;;
37425;SDS011;23285;50.180;7.036;2022-10-22T16:58:42;5.50;;;1.90;;
37425;SDS011;23285;50.180;7.036;2022-10-22T17:01:27;4.97;;;2.30;;
37425;SDS011;23285;50.180;7.036;2022-10-22T17:04:13;7.97;;;2.07;;
37425;SDS011;23285;50.180;7.036;2022-10-22T17:07:00;5.83;;;2.17;;
37425;SDS011;23285;50.180;7.036;2022-10-22T17:09:45;9.17;;;2.30;;
37425;SDS011;23285;50.180;7.036;2022-10-22T17:12:31;5.60;;;2.10;;
37425;SDS011;23285;50.180;7.036;2022-10-22T17:15:18;4.43;;;1.80;;
37425;SDS011;23285;50.180;7.036;2022-10-22T17:18:03;8.93;;;2.00;;
37425;SDS011;23285;50.180;7.036;2022-10-22T17:20:48;5.87;;;1.93;;
37425;SDS011;23285;50.180;7.036;2022-10-22T17:23:33;4.67;;;1.90;;
37425;SDS011;23285;50.180;7.036;2022-10-22T17:26:19;4.77;;;1.80;;
37425;SDS011;23285;50.180;7.036;2022-10-22T17:29:05;4.83;;;1.87;;
37425;SDS011;23285;50.180;7.036;2022-10-22T17:31:50;4.40;;;1.60;;
37425;SDS011;23285;50.180;7.036;2022-10-22T17:34:36;5.67;;;1.60;;
37425;SDS011;23285;50.180;7.036;2022-10-22T17:37:22;5.07;;;2.17;;
37425;SDS011;23285;50.180;7.036;2022-10-22T17:40:08;4.60;;;1.97;;
37425;SDS011;23285;50.180;7.036;2022-10-22T17:42:53;4.97;;;1.70;;
37425;SDS011;23285;50.180;7.036;2022-10-22T17:45:38;3.20;;;1.90;;
37425;SDS011;23285;50.180;7.036;2022-10-22T17:48:23;3.50;;;1.80;;
37425;SDS011;23285;50.180;7.036;2022-10-22T17:51:09;5.97;;;1.73;;
37425;SDS011;23285;50.180;7.036;2022-10-22T17:53:56;5.47;;;1.73;;
37425;SDS011;23285;50.180;7.036;2022-10-22T17:56:41;5.33;;;1.80;;
37425;SDS011;23285;50.180;7.036;2022-10-22T17:59:27;6.00;;;2.10;;
37425;SDS011;23285;50.180;7.036;2022-10-22T18:02:13;6.47;;;2.00;;
37425;SDS011;23285;50.180;7.036;2022-10-22T18:04:59;10.13;;;1.67;;
37425;SDS011;23285;50.180;7.036;2022-10-22T18:07:44;6.23;;;1.90;;
37425;SDS011;23285;50.180;7.036;2022-10-22T18:10:29;5.97;;;2.30;;
37425;SDS011;23285;50.180;7.036;2022-10-22T18:13:14;6.40;;;2.47;;
37425;SDS011;23285;50.180;7.036;2022-10-22T18:15:59;8.47;;;2.77;;
37425;SDS011;23285;50.180;7.036;2022-10-22T18:18:45;5.50;;;2.73;;
37425;SDS011;23285;50.180;7.036;2022-10-22T18:21:36;10.90;;;3.33;;
37425;SDS011;23285;50.180;7.036;2022-10-22T18:24:21;8.83;;;3.03;;